Oelwein, IA

11:35 AM CST on February 24, 2017 (GMT -0600)
Oelwein Municipal

Weather History for KOLZ - February, 2015

Change the Weather History Date:

Sunday, February 22, 2015

  Actual Average Record
Temperature  
Mean Temperature 0 °F -  
Max Temperature 8 °F 35 °F 68 °F (2017)
Min Temperature -7 °F 18 °F -11 °F (1963)
Degree Days  
Heating Degree Days 64    
Moisture  
Dew Point -9 °F    
Average Humidity 63    
Maximum Humidity 79    
Minimum Humidity 51    
Precipitation  
Precipitation 0.00 in - - ()
Sea Level Pressure  
Sea Level Pressure 30.55 in    
Wind  
Wind Speed 16 mph (NNW)    
Max Wind Speed 25 mph    
Max Gust Speed 31 mph    
Visibility 10 miles    
Events      
Averages and records for this station are not official NWS values.
T = Trace of Precipitation, MM = Missing Value Source: NWS Daily Summary

Daily Weather History Graph

Daily Weather History Graph

Search for Another Location

Airport or City:

Trip Planner

Search our weather history database for the weather conditions in past years. The results will help you decide how hot, cold, wet, or windy it might be!

Date:

Astronomy

Feb. 22, 2015 Rise Set
Actual Time 6:54 AM CST 5:48 PM CST
Civil Twilight 6:26 AM CST 6:17 PM CST
Nautical Twilight 5:53 AM CST 6:49 PM CST
Astronomical Twilight 5:20 AM CST 7:22 PM CST
Moon 9:00 AM CST (2/22) 10:38 PM CST (2/22)
Length of Visible Light 11h 50m
Length of Day
10h 53m
Waxing Crescent, 19% of the Moon is Illuminated
Feb 22
Waxing Crescent
Feb 25
First Quarter
Mar 5
Full
Mar 13
Last Quarter
Mar 20
New

Hourly Weather History & Observations

Time (CST) Temp. Windchill Dew Point Humidity Pressure Visibility Wind Dir Wind Speed Gust Speed Precip Events Conditions
12:15 AM 8.6 °F -7.7 °F 1.4 °F 73% 30.31 in 10.0 mi NW 13.8 mph - N/A   Clear
12:35 AM 6.8 °F -11.3 °F 1.4 °F 79% 30.32 in 10.0 mi NW 16.1 mph - N/A   Clear
12:55 AM 6.8 °F -12.4 °F -0.4 °F 72% 30.33 in 10.0 mi NW 18.4 mph 24.2 mph N/A   Clear
1:15 AM 6.8 °F -11.3 °F -0.4 °F 72% 30.33 in 10.0 mi NW 16.1 mph 23.0 mph N/A   Clear
1:35 AM 5.0 °F -14.7 °F -2.2 °F 72% 30.34 in 10.0 mi NW 18.4 mph - N/A   Clear
1:55 AM 5.0 °F -13.6 °F -2.2 °F 72% 30.34 in 10.0 mi NNW 16.1 mph 23.0 mph N/A   Clear
2:15 AM 5.0 °F -13.6 °F -2.2 °F 72% 30.34 in 10.0 mi NNW 16.1 mph 23.0 mph N/A   Clear
2:35 AM 3.2 °F -17.1 °F -4.0 °F 72% 30.35 in 10.0 mi NW 18.4 mph 24.2 mph N/A   Clear
2:55 AM 3.2 °F -17.6 °F -4.0 °F 72% 30.36 in 10.0 mi NW 19.6 mph - N/A   Clear
3:15 AM 3.2 °F -17.1 °F -5.8 °F 66% 30.38 in 10.0 mi NW 18.4 mph - N/A   Clear
3:35 AM 1.4 °F -17.6 °F -5.8 °F 72% 30.38 in 10.0 mi NW 15.0 mph - N/A   Clear
3:55 AM 1.4 °F -18.2 °F -5.8 °F 72% 30.39 in 10.0 mi NW 16.1 mph 23.0 mph N/A   Partly Cloudy
4:15 AM 1.4 °F -17.6 °F -5.8 °F 72% 30.40 in 10.0 mi NW 15.0 mph 21.9 mph N/A   Mostly Cloudy
4:35 AM 1.4 °F -18.8 °F -5.8 °F 72% 30.41 in 10.0 mi NW 17.3 mph - N/A   Mostly Cloudy
4:55 AM 1.4 °F -17.6 °F -5.8 °F 72% 30.42 in 10.0 mi NW 15.0 mph - N/A   Mostly Cloudy
5:15 AM 1.4 °F -19.4 °F -7.6 °F 66% 30.42 in 10.0 mi NW 18.4 mph - N/A   Overcast
5:35 AM -0.4 °F -19.9 °F -7.6 °F 72% 30.43 in 10.0 mi NW 15.0 mph - N/A   Overcast
5:55 AM -0.4 °F -21.7 °F -9.4 °F 66% 30.44 in 10.0 mi NW 18.4 mph - N/A   Mostly Cloudy
6:15 AM -0.4 °F -21.2 °F -9.4 °F 66% 30.45 in 10.0 mi NW 17.3 mph 23.0 mph N/A   Overcast
6:35 AM -0.4 °F -19.2 °F -9.4 °F 66% 30.46 in 10.0 mi NW 13.8 mph 20.7 mph N/A   Mostly Cloudy
6:55 AM -0.4 °F -21.2 °F -9.4 °F 66% 30.47 in 10.0 mi NW 17.3 mph - N/A   Scattered Clouds
7:15 AM -0.4 °F -21.2 °F -9.4 °F 66% 30.48 in 10.0 mi NW 17.3 mph - N/A   Clear
7:35 AM -0.4 °F -22.3 °F -9.4 °F 66% 30.49 in 10.0 mi NW 19.6 mph - N/A   Clear
7:55 AM -0.4 °F -21.7 °F -9.4 °F 66% 30.51 in 10.0 mi NW 18.4 mph - N/A   Clear
8:15 AM -0.4 °F -20.5 °F -9.4 °F 66% 30.52 in 10.0 mi NNW 16.1 mph 21.9 mph N/A   Clear
8:30 AM 1.4 °F -19.9 °F -7.6 °F 66% 30.52 in 10.0 mi NNW 19.6 mph - N/A   Clear
8:55 AM 1.4 °F -18.8 °F -7.6 °F 66% 30.53 in 10.0 mi NNW 17.3 mph - N/A   Clear
9:15 AM 1.4 °F -20.5 °F -9.4 °F 61% 30.54 in 10.0 mi NNW 20.7 mph - N/A   Clear
9:35 AM 3.2 °F -17.6 °F -9.4 °F 56% 30.54 in 10.0 mi NNW 19.6 mph 26.5 mph N/A   Clear
9:55 AM 3.2 °F -17.6 °F -9.4 °F 56% 30.55 in 10.0 mi NNW 19.6 mph - N/A   Clear
10:15 AM 3.2 °F -19.0 °F -11.2 °F 51% 30.56 in 10.0 mi NNW 23.0 mph 31.1 mph N/A   Clear
10:35 AM 3.2 °F -17.6 °F -9.4 °F 56% 30.57 in 10.0 mi NNW 19.6 mph 26.5 mph N/A   Clear
10:55 AM 5.0 °F -16.2 °F -9.4 °F 52% 30.58 in 10.0 mi NNW 21.9 mph 28.8 mph N/A   Clear
11:15 AM 3.2 °F -17.6 °F -9.4 °F 56% 30.59 in 10.0 mi NNW 19.6 mph 28.8 mph N/A   Clear
11:35 AM 5.0 °F -15.2 °F -9.4 °F 52% 30.59 in 10.0 mi NNW 19.6 mph - N/A   Clear
11:55 AM 5.0 °F -15.7 °F -9.4 °F 52% 30.58 in 10.0 mi NNW 20.7 mph - N/A   Clear
12:15 PM 5.0 °F -17.5 °F -9.4 °F 52% 30.58 in 10.0 mi NW 25.3 mph - N/A   Partly Cloudy
12:55 PM 5.0 °F -15.7 °F -9.4 °F 52% 30.59 in 10.0 mi NNW 20.7 mph - N/A   Partly Cloudy
1:15 PM 5.0 °F -14.7 °F -7.6 °F 56% 30.59 in 10.0 mi NNW 18.4 mph - N/A   Partly Cloudy
1:35 PM 5.0 °F -13.6 °F -9.4 °F 52% 30.59 in 10.0 mi NNW 16.1 mph 25.3 mph N/A   Clear
1:55 PM 5.0 °F -14.2 °F -9.4 °F 52% 30.60 in 10.0 mi NW 17.3 mph - N/A   Scattered Clouds
2:15 PM 5.0 °F -14.7 °F -9.4 °F 52% 30.60 in 10.0 mi NNW 18.4 mph 25.3 mph N/A   Scattered Clouds
2:35 PM 5.0 °F -15.2 °F -7.6 °F 56% 30.60 in 10.0 mi NW 19.6 mph 26.5 mph N/A   Partly Cloudy
2:55 PM 5.0 °F -15.2 °F -7.6 °F 56% 30.60 in 10.0 mi NNW 19.6 mph - N/A   Mostly Cloudy
3:15 PM 5.0 °F -13.0 °F -7.6 °F 56% 30.61 in 10.0 mi NNW 15.0 mph 24.2 mph N/A   Scattered Clouds
3:35 PM 5.0 °F -13.0 °F -9.4 °F 52% 30.61 in 10.0 mi NNW 15.0 mph 23.0 mph N/A   Scattered Clouds
3:55 PM 5.0 °F -13.6 °F -7.6 °F 56% 30.61 in 10.0 mi NNW 16.1 mph - N/A   Scattered Clouds
4:15 PM 3.2 °F -16.5 °F -9.4 °F 56% 30.61 in 10.0 mi NNW 17.3 mph - N/A   Partly Cloudy
4:35 PM 3.2 °F -16.5 °F -9.4 °F 56% 30.62 in 10.0 mi NNW 17.3 mph - N/A   Partly Cloudy
4:55 PM 3.2 °F -15.9 °F -9.4 °F 56% 30.62 in 10.0 mi NW 16.1 mph - N/A   Clear
5:15 PM 3.2 °F -14.6 °F -9.4 °F 56% 30.62 in 10.0 mi NNW 13.8 mph 21.9 mph N/A   Clear
5:35 PM 1.4 °F -18.2 °F -9.4 °F 61% 30.63 in 10.0 mi NNW 16.1 mph - N/A   Clear
5:55 PM 1.4 °F -17.6 °F -11.2 °F 56% 30.64 in 10.0 mi NNW 15.0 mph 20.7 mph N/A   Clear
6:15 PM -0.4 °F -19.2 °F -11.2 °F 60% 30.65 in 10.0 mi NNW 13.8 mph 19.6 mph N/A   Clear
6:35 PM -0.4 °F -15.7 °F -9.4 °F 66% 30.66 in 10.0 mi NNW 9.2 mph - N/A   Clear
6:55 PM -0.4 °F -15.7 °F -9.4 °F 66% 30.67 in 10.0 mi NNW 9.2 mph - N/A   Clear
7:15 PM -0.4 °F -16.7 °F -11.2 °F 60% 30.67 in 10.0 mi NNW 10.4 mph 16.1 mph N/A   Clear
7:30 PM -2.2 °F -18.0 °F -11.2 °F 66% 30.67 in 10.0 mi NNW 9.2 mph - N/A   Clear
7:55 PM -2.2 °F -15.6 °F -11.2 °F 66% 30.68 in 10.0 mi NNW 6.9 mph - N/A   Clear
8:15 PM -4.0 °F -19.0 °F -11.2 °F 71% 30.69 in 10.0 mi NNW 8.1 mph - N/A   Clear
8:35 PM -2.2 °F -18.0 °F -11.2 °F 66% 30.69 in 10.0 mi NNW 9.2 mph - N/A   Clear
8:55 PM -4.0 °F -16.3 °F -13.0 °F 65% 30.71 in - NNW 5.8 mph - N/A   Clear
9:15 PM -4.0 °F -14.6 °F -13.0 °F 65% 30.72 in 10.0 mi WNW 4.6 mph - N/A   Clear
9:35 PM -5.8 °F -16.7 °F -13.0 °F 71% 30.72 in 10.0 mi NNW 4.6 mph - N/A   Clear
9:55 PM -4.0 °F -17.8 °F -13.0 °F 65% 30.72 in 10.0 mi North 6.9 mph - N/A   Clear
10:15 PM -5.8 °F -21.2 °F -13.0 °F 71% 30.72 in 10.0 mi NNW 8.1 mph - N/A   Clear
10:35 PM -4.0 °F -19.0 °F -13.0 °F 65% 30.72 in 10.0 mi NNW 8.1 mph - N/A   Clear
10:55 PM -4.0 °F -14.6 °F -13.0 °F 65% 30.73 in 10.0 mi NNW 4.6 mph - N/A   Clear
11:15 PM -5.8 °F -16.7 °F -14.8 °F 65% 30.73 in 10.0 mi NW 4.6 mph - N/A   Clear
11:35 PM -7.6 °F -20.6 °F -14.8 °F 71% 30.74 in 10.0 mi NW 5.8 mph - N/A   Clear
11:55 PM -7.6 °F -22.1 °F -14.8 °F 71% 30.74 in 10.0 mi NW 6.9 mph - N/A   Clear